sensor_id;sensor_type;location;lat;lon;timestamp;P1;durP1;ratioP1;P2;durP2;ratioP2
61054;SDS011;46939;48.940;8.258;2022-12-29T00:00:59;3.45;;;1.00;;
61054;SDS011;46939;48.940;8.258;2022-12-29T00:03:28;2.50;;;0.82;;
61054;SDS011;46939;48.940;8.258;2022-12-29T00:05:59;2.30;;;0.77;;
61054;SDS011;46939;48.940;8.258;2022-12-29T00:08:27;2.25;;;0.82;;
61054;SDS011;46939;48.940;8.258;2022-12-29T00:11:06;2.72;;;0.80;;
61054;SDS011;46939;48.940;8.258;2022-12-29T00:13:35;2.03;;;0.80;;
61054;SDS011;46939;48.940;8.258;2022-12-29T00:16:16;3.15;;;0.93;;
61054;SDS011;46939;48.940;8.258;2022-12-29T00:18:44;3.50;;;1.08;;
61054;SDS011;46939;48.940;8.258;2022-12-29T00:21:16;1.75;;;0.80;;
61054;SDS011;46939;48.940;8.258;2022-12-29T00:23:59;2.65;;;0.93;;
61054;SDS011;46939;48.940;8.258;2022-12-29T00:26:40;1.65;;;0.80;;
61054;SDS011;46939;48.940;8.258;2022-12-29T00:29:21;2.15;;;0.90;;
61054;SDS011;46939;48.940;8.258;2022-12-29T00:32:02;3.75;;;0.90;;
61054;SDS011;46939;48.940;8.258;2022-12-29T00:34:53;4.97;;;1.10;;
61054;SDS011;46939;48.940;8.258;2022-12-29T00:37:40;1.45;;;0.80;;
61054;SDS011;46939;48.940;8.258;2022-12-29T00:40:23;2.75;;;0.90;;
61054;SDS011;46939;48.940;8.258;2022-12-29T00:43:04;4.22;;;0.70;;
61054;SDS011;46939;48.940;8.258;2022-12-29T00:45:45;3.85;;;0.95;;
61054;SDS011;46939;48.940;8.258;2022-12-29T00:48:13;4.47;;;0.95;;
61054;SDS011;46939;48.940;8.258;2022-12-29T00:51:01;2.72;;;0.90;;
61054;SDS011;46939;48.940;8.258;2022-12-29T00:53:30;1.63;;;0.80;;
61054;SDS011;46939;48.940;8.258;2022-12-29T00:55:58;3.03;;;1.08;;
61054;SDS011;46939;48.940;8.258;2022-12-29T00:58:27;4.22;;;0.98;;
61054;SDS011;46939;48.940;8.258;2022-12-29T01:01:00;3.92;;;1.25;;
61054;SDS011;46939;48.940;8.258;2022-12-29T01:03:30;3.50;;;1.13;;
61054;SDS011;46939;48.940;8.258;2022-12-29T01:05:59;3.20;;;0.90;;
61054;SDS011;46939;48.940;8.258;2022-12-29T01:08:30;4.05;;;1.10;;
61054;SDS011;46939;48.940;8.258;2022-12-29T01:10:59;2.60;;;0.90;;
61054;SDS011;46939;48.940;8.258;2022-12-29T01:13:26;3.45;;;0.85;;
61054;SDS011;46939;48.940;8.258;2022-12-29T01:15:54;4.65;;;1.17;;
61054;SDS011;46939;48.940;8.258;2022-12-29T01:18:25;5.40;;;1.38;;
61054;SDS011;46939;48.940;8.258;2022-12-29T01:20:58;4.30;;;1.30;;
61054;SDS011;46939;48.940;8.258;2022-12-29T01:23:28;4.90;;;1.00;;
61054;SDS011;46939;48.940;8.258;2022-12-29T01:26:07;3.20;;;0.80;;
61054;SDS011;46939;48.940;8.258;2022-12-29T01:28:36;4.85;;;0.90;;
61054;SDS011;46939;48.940;8.258;2022-12-29T01:31:06;1.92;;;0.80;;
61054;SDS011;46939;48.940;8.258;2022-12-29T01:33:35;4.00;;;1.17;;
61054;SDS011;46939;48.940;8.258;2022-12-29T01:36:04;2.88;;;0.90;;
61054;SDS011;46939;48.940;8.258;2022-12-29T01:38:36;7.13;;;1.33;;
61054;SDS011;46939;48.940;8.258;2022-12-29T01:41:06;1.67;;;0.80;;
61054;SDS011;46939;48.940;8.258;2022-12-29T01:43:39;2.17;;;0.80;;
61054;SDS011;46939;48.940;8.258;2022-12-29T01:46:13;2.97;;;0.90;;
61054;SDS011;46939;48.940;8.258;2022-12-29T01:48:51;2.22;;;0.80;;
61054;SDS011;46939;48.940;8.258;2022-12-29T01:51:23;5.10;;;0.77;;
61054;SDS011;46939;48.940;8.258;2022-12-29T01:53:56;2.80;;;0.73;;
61054;SDS011;46939;48.940;8.258;2022-12-29T01:56:29;2.67;;;1.10;;
61054;SDS011;46939;48.940;8.258;2022-12-29T01:59:00;2.55;;;1.08;;
61054;SDS011;46939;48.940;8.258;2022-12-29T02:01:32;2.63;;;0.90;;
61054;SDS011;46939;48.940;8.258;2022-12-29T02:04:00;2.97;;;0.98;;
61054;SDS011;46939;48.940;8.258;2022-12-29T02:06:31;4.68;;;0.93;;
61054;SDS011;46939;48.940;8.258;2022-12-29T02:09:06;3.25;;;1.10;;
61054;SDS011;46939;48.940;8.258;2022-12-29T02:11:34;3.08;;;1.10;;
61054;SDS011;46939;48.940;8.258;2022-12-29T02:14:07;3.65;;;1.00;;
61054;SDS011;46939;48.940;8.258;2022-12-29T02:16:42;2.45;;;1.00;;
61054;SDS011;46939;48.940;8.258;2022-12-29T02:19:30;7.47;;;1.10;;
61054;SDS011;46939;48.940;8.258;2022-12-29T02:22:22;3.75;;;1.20;;
61054;SDS011;46939;48.940;8.258;2022-12-29T02:31:31;3.67;;;0.80;;
61054;SDS011;46939;48.940;8.258;2022-12-29T02:34:09;3.20;;;1.00;;
61054;SDS011;46939;48.940;8.258;2022-12-29T02:36:49;3.03;;;0.73;;
61054;SDS011;46939;48.940;8.258;2022-12-29T02:39:27;3.85;;;0.85;;
61054;SDS011;46939;48.940;8.258;2022-12-29T02:42:03;2.35;;;0.85;;
61054;SDS011;46939;48.940;8.258;2022-12-29T02:44:39;3.20;;;1.30;;
61054;SDS011;46939;48.940;8.258;2022-12-29T02:47:22;3.95;;;0.90;;
61054;SDS011;46939;48.940;8.258;2022-12-29T02:49:58;2.78;;;0.55;;
61054;SDS011;46939;48.940;8.258;2022-12-29T02:52:34;3.25;;;0.55;;
61054;SDS011;46939;48.940;8.258;2022-12-29T02:55:09;1.77;;;0.90;;
61054;SDS011;46939;48.940;8.258;2022-12-29T02:57:36;2.25;;;0.80;;
61054;SDS011;46939;48.940;8.258;2022-12-29T03:00:06;1.92;;;0.57;;
61054;SDS011;46939;48.940;8.258;2022-12-29T03:02:53;2.35;;;0.70;;
61054;SDS011;46939;48.940;8.258;2022-12-29T03:05:41;5.85;;;1.05;;
61054;SDS011;46939;48.940;8.258;2022-12-29T03:08:22;2.63;;;0.75;;
61054;SDS011;46939;48.940;8.258;2022-12-29T03:10:59;2.05;;;0.73;;
61054;SDS011;46939;48.940;8.258;2022-12-29T03:13:54;2.88;;;0.70;;
61054;SDS011;46939;48.940;8.258;2022-12-29T03:16:42;1.63;;;0.52;;
61054;SDS011;46939;48.940;8.258;2022-12-29T03:19:16;1.33;;;0.60;;
61054;SDS011;46939;48.940;8.258;2022-12-29T03:21:49;1.17;;;0.50;;
61054;SDS011;46939;48.940;8.258;2022-12-29T03:24:36;2.50;;;0.60;;
61054;SDS011;46939;48.940;8.258;2022-12-29T03:27:08;3.13;;;0.57;;
61054;SDS011;46939;48.940;8.258;2022-12-29T03:29:41;1.42;;;0.60;;
61054;SDS011;46939;48.940;8.258;2022-12-29T03:32:17;2.97;;;0.90;;
61054;SDS011;46939;48.940;8.258;2022-12-29T03:34:50;2.95;;;0.90;;
61054;SDS011;46939;48.940;8.258;2022-12-29T03:37:20;2.00;;;0.68;;
61054;SDS011;46939;48.940;8.258;2022-12-29T03:39:53;3.20;;;0.75;;
61054;SDS011;46939;48.940;8.258;2022-12-29T03:42:23;2.10;;;0.80;;
61054;SDS011;46939;48.940;8.258;2022-12-29T03:44:54;1.88;;;0.65;;
61054;SDS011;46939;48.940;8.258;2022-12-29T03:47:24;2.10;;;1.08;;
61054;SDS011;46939;48.940;8.258;2022-12-29T03:49:55;4.38;;;0.80;;
61054;SDS011;46939;48.940;8.258;2022-12-29T03:52:24;2.08;;;0.70;;
61054;SDS011;46939;48.940;8.258;2022-12-29T03:54:52;2.35;;;0.70;;
61054;SDS011;46939;48.940;8.258;2022-12-29T03:57:20;3.53;;;1.10;;
61054;SDS011;46939;48.940;8.258;2022-12-29T03:59:49;2.50;;;0.60;;
61054;SDS011;46939;48.940;8.258;2022-12-29T04:02:17;2.30;;;0.70;;
61054;SDS011;46939;48.940;8.258;2022-12-29T04:04:45;2.30;;;0.80;;
61054;SDS011;46939;48.940;8.258;2022-12-29T04:07:23;2.08;;;0.93;;
61054;SDS011;46939;48.940;8.258;2022-12-29T04:09:52;5.03;;;0.90;;
61054;SDS011;46939;48.940;8.258;2022-12-29T04:12:20;1.70;;;0.70;;
61054;SDS011;46939;48.940;8.258;2022-12-29T04:14:49;2.90;;;0.70;;
61054;SDS011;46939;48.940;8.258;2022-12-29T04:17:18;2.28;;;0.90;;
61054;SDS011;46939;48.940;8.258;2022-12-29T04:19:46;4.70;;;0.98;;
61054;SDS011;46939;48.940;8.258;2022-12-29T04:22:21;3.58;;;0.90;;
61054;SDS011;46939;48.940;8.258;2022-12-29T04:24:49;1.33;;;0.63;;
61054;SDS011;46939;48.940;8.258;2022-12-29T04:27:18;3.42;;;0.82;;
61054;SDS011;46939;48.940;8.258;2022-12-29T04:29:47;3.15;;;0.82;;
61054;SDS011;46939;48.940;8.258;2022-12-29T04:32:15;4.80;;;0.95;;
61054;SDS011;46939;48.940;8.258;2022-12-29T04:34:44;1.30;;;0.65;;
61054;SDS011;46939;48.940;8.258;2022-12-29T04:37:12;3.55;;;0.73;;
61054;SDS011;46939;48.940;8.258;2022-12-29T04:39:43;3.75;;;0.85;;
61054;SDS011;46939;48.940;8.258;2022-12-29T04:42:11;2.10;;;0.85;;
61054;SDS011;46939;48.940;8.258;2022-12-29T04:44:39;3.63;;;0.98;;
61054;SDS011;46939;48.940;8.258;2022-12-29T04:47:08;4.88;;;0.85;;
61054;SDS011;46939;48.940;8.258;2022-12-29T04:49:36;5.60;;;0.68;;
61054;SDS011;46939;48.940;8.258;2022-12-29T04:52:04;3.78;;;1.00;;
61054;SDS011;46939;48.940;8.258;2022-12-29T04:54:33;3.75;;;0.80;;
61054;SDS011;46939;48.940;8.258;2022-12-29T04:57:04;3.53;;;1.30;;
61054;SDS011;46939;48.940;8.258;2022-12-29T04:59:32;5.13;;;1.00;;
61054;SDS011;46939;48.940;8.258;2022-12-29T05:02:03;5.32;;;1.25;;
61054;SDS011;46939;48.940;8.258;2022-12-29T05:04:31;2.78;;;0.90;;
61054;SDS011;46939;48.940;8.258;2022-12-29T05:06:59;4.65;;;1.00;;
61054;SDS011;46939;48.940;8.258;2022-12-29T05:09:28;3.15;;;1.10;;
61054;SDS011;46939;48.940;8.258;2022-12-29T05:11:57;2.40;;;1.02;;
61054;SDS011;46939;48.940;8.258;2022-12-29T05:14:28;1.90;;;1.00;;
61054;SDS011;46939;48.940;8.258;2022-12-29T05:16:56;2.10;;;1.10;;
61054;SDS011;46939;48.940;8.258;2022-12-29T05:19:24;3.20;;;1.10;;
61054;SDS011;46939;48.940;8.258;2022-12-29T05:21:53;2.95;;;1.00;;
61054;SDS011;46939;48.940;8.258;2022-12-29T05:24:22;3.28;;;1.15;;
61054;SDS011;46939;48.940;8.258;2022-12-29T05:26:50;5.28;;;1.10;;
61054;SDS011;46939;48.940;8.258;2022-12-29T05:29:18;2.75;;;1.17;;
61054;SDS011;46939;48.940;8.258;2022-12-29T05:31:49;3.33;;;1.30;;
61054;SDS011;46939;48.940;8.258;2022-12-29T05:34:17;5.18;;;1.30;;
61054;SDS011;46939;48.940;8.258;2022-12-29T05:36:46;3.08;;;1.10;;
61054;SDS011;46939;48.940;8.258;2022-12-29T05:39:14;4.93;;;1.33;;
61054;SDS011;46939;48.940;8.258;2022-12-29T05:41:43;3.33;;;1.30;;
61054;SDS011;46939;48.940;8.258;2022-12-29T05:44:11;1.88;;;0.90;;
61054;SDS011;46939;48.940;8.258;2022-12-29T05:46:39;2.65;;;1.33;;
61054;SDS011;46939;48.940;8.258;2022-12-29T05:49:10;4.03;;;1.08;;
61054;SDS011;46939;48.940;8.258;2022-12-29T05:51:39;2.63;;;1.05;;
61054;SDS011;46939;48.940;8.258;2022-12-29T05:54:07;4.82;;;1.40;;
61054;SDS011;46939;48.940;8.258;2022-12-29T05:56:36;3.35;;;1.30;;
61054;SDS011;46939;48.940;8.258;2022-12-29T05:59:04;2.88;;;1.38;;
61054;SDS011;46939;48.940;8.258;2022-12-29T06:01:32;4.88;;;1.23;;
61054;SDS011;46939;48.940;8.258;2022-12-29T06:04:01;3.90;;;1.20;;
61054;SDS011;46939;48.940;8.258;2022-12-29T06:06:32;4.95;;;1.40;;
61054;SDS011;46939;48.940;8.258;2022-12-29T06:09:00;4.50;;;1.17;;
61054;SDS011;46939;48.940;8.258;2022-12-29T06:11:28;6.97;;;1.20;;
61054;SDS011;46939;48.940;8.258;2022-12-29T06:13:57;2.50;;;1.20;;
61054;SDS011;46939;48.940;8.258;2022-12-29T06:16:25;2.75;;;1.15;;
61054;SDS011;46939;48.940;8.258;2022-12-29T06:18:53;3.55;;;1.20;;
61054;SDS011;46939;48.940;8.258;2022-12-29T06:21:22;2.60;;;1.33;;
61054;SDS011;46939;48.940;8.258;2022-12-29T06:23:53;2.83;;;1.27;;
61054;SDS011;46939;48.940;8.258;2022-12-29T06:26:21;3.15;;;1.30;;
61054;SDS011;46939;48.940;8.258;2022-12-29T06:28:49;3.28;;;1.10;;
61054;SDS011;46939;48.940;8.258;2022-12-29T06:31:18;3.25;;;1.35;;
61054;SDS011;46939;48.940;8.258;2022-12-29T06:33:46;3.50;;;1.13;;
61054;SDS011;46939;48.940;8.258;2022-12-29T06:36:14;4.07;;;1.02;;
61054;SDS011;46939;48.940;8.258;2022-12-29T06:38:43;2.83;;;1.08;;
61054;SDS011;46939;48.940;8.258;2022-12-29T06:41:14;5.18;;;1.42;;
61054;SDS011;46939;48.940;8.258;2022-12-29T06:43:42;3.42;;;1.20;;
61054;SDS011;46939;48.940;8.258;2022-12-29T06:46:10;3.13;;;1.27;;
61054;SDS011;46939;48.940;8.258;2022-12-29T06:48:39;6.78;;;1.20;;
61054;SDS011;46939;48.940;8.258;2022-12-29T06:51:07;2.85;;;0.95;;
61054;SDS011;46939;48.940;8.258;2022-12-29T06:53:36;3.80;;;1.30;;
61054;SDS011;46939;48.940;8.258;2022-12-29T06:56:04;2.95;;;1.40;;
61054;SDS011;46939;48.940;8.258;2022-12-29T06:58:36;3.47;;;1.10;;
61054;SDS011;46939;48.940;8.258;2022-12-29T07:01:04;2.13;;;0.90;;
61054;SDS011;46939;48.940;8.258;2022-12-29T07:03:32;4.03;;;1.35;;
61054;SDS011;46939;48.940;8.258;2022-12-29T07:06:01;2.35;;;1.00;;
61054;SDS011;46939;48.940;8.258;2022-12-29T07:08:29;3.53;;;1.20;;
61054;SDS011;46939;48.940;8.258;2022-12-29T07:10:57;2.35;;;1.20;;
61054;SDS011;46939;48.940;8.258;2022-12-29T07:13:26;5.93;;;1.48;;
61054;SDS011;46939;48.940;8.258;2022-12-29T07:15:56;4.60;;;1.35;;
61054;SDS011;46939;48.940;8.258;2022-12-29T07:18:25;4.53;;;1.35;;
61054;SDS011;46939;48.940;8.258;2022-12-29T07:20:53;5.88;;;1.67;;
61054;SDS011;46939;48.940;8.258;2022-12-29T07:23:22;4.38;;;1.60;;
61054;SDS011;46939;48.940;8.258;2022-12-29T07:25:50;4.50;;;1.33;;
61054;SDS011;46939;48.940;8.258;2022-12-29T07:28:27;2.90;;;1.30;;
61054;SDS011;46939;48.940;8.258;2022-12-29T07:30:58;3.85;;;1.25;;
61054;SDS011;46939;48.940;8.258;2022-12-29T07:33:28;3.53;;;1.52;;
61054;SDS011;46939;48.940;8.258;2022-12-29T07:35:56;3.03;;;1.20;;
61054;SDS011;46939;48.940;8.258;2022-12-29T07:38:25;3.92;;;1.25;;
61054;SDS011;46939;48.940;8.258;2022-12-29T07:40:56;4.38;;;1.20;;
61054;SDS011;46939;48.940;8.258;2022-12-29T07:43:25;3.60;;;1.52;;
61054;SDS011;46939;48.940;8.258;2022-12-29T07:45:59;2.83;;;1.30;;
61054;SDS011;46939;48.940;8.258;2022-12-29T07:48:27;4.07;;;1.38;;
61054;SDS011;46939;48.940;8.258;2022-12-29T07:50:58;9.80;;;1.30;;
61054;SDS011;46939;48.940;8.258;2022-12-29T07:53:27;5.43;;;1.25;;
61054;SDS011;46939;48.940;8.258;2022-12-29T07:55:55;5.50;;;1.20;;
61054;SDS011;46939;48.940;8.258;2022-12-29T07:58:23;2.47;;;1.10;;
61054;SDS011;46939;48.940;8.258;2022-12-29T08:00:52;8.00;;;1.40;;
61054;SDS011;46939;48.940;8.258;2022-12-29T08:03:24;4.57;;;1.20;;
61054;SDS011;46939;48.940;8.258;2022-12-29T08:05:52;8.30;;;2.42;;
61054;SDS011;46939;48.940;8.258;2022-12-29T08:08:23;3.75;;;1.33;;
61054;SDS011;46939;48.940;8.258;2022-12-29T08:10:52;5.20;;;2.05;;
61054;SDS011;46939;48.940;8.258;2022-12-29T08:13:20;5.85;;;1.83;;
61054;SDS011;46939;48.940;8.258;2022-12-29T08:15:50;5.68;;;1.65;;
61054;SDS011;46939;48.940;8.258;2022-12-29T08:18:18;5.15;;;1.20;;
61054;SDS011;46939;48.940;8.258;2022-12-29T08:20:49;5.97;;;1.50;;
61054;SDS011;46939;48.940;8.258;2022-12-29T08:23:18;4.72;;;1.60;;
61054;SDS011;46939;48.940;8.258;2022-12-29T08:25:46;3.97;;;1.48;;
61054;SDS011;46939;48.940;8.258;2022-12-29T08:28:14;3.55;;;1.30;;
61054;SDS011;46939;48.940;8.258;2022-12-29T08:30:43;6.43;;;1.52;;
61054;SDS011;46939;48.940;8.258;2022-12-29T08:33:14;4.20;;;1.27;;
61054;SDS011;46939;48.940;8.258;2022-12-29T08:35:42;3.33;;;1.13;;
61054;SDS011;46939;48.940;8.258;2022-12-29T08:38:13;6.13;;;1.40;;
61054;SDS011;46939;48.940;8.258;2022-12-29T08:40:43;3.63;;;1.35;;
61054;SDS011;46939;48.940;8.258;2022-12-29T08:43:11;4.40;;;1.17;;
61054;SDS011;46939;48.940;8.258;2022-12-29T08:45:39;2.28;;;0.98;;
61054;SDS011;46939;48.940;8.258;2022-12-29T08:48:08;4.25;;;1.08;;
61054;SDS011;46939;48.940;8.258;2022-12-29T08:50:42;2.53;;;0.90;;
61054;SDS011;46939;48.940;8.258;2022-12-29T08:53:14;2.33;;;1.10;;
61054;SDS011;46939;48.940;8.258;2022-12-29T08:55:44;2.58;;;1.10;;
61054;SDS011;46939;48.940;8.258;2022-12-29T08:58:12;3.55;;;1.15;;
61054;SDS011;46939;48.940;8.258;2022-12-29T09:00:43;2.40;;;1.02;;
61054;SDS011;46939;48.940;8.258;2022-12-29T09:03:11;3.53;;;1.15;;
61054;SDS011;46939;48.940;8.258;2022-12-29T09:05:39;2.78;;;1.00;;
61054;SDS011;46939;48.940;8.258;2022-12-29T09:08:09;1.63;;;0.77;;
61054;SDS011;46939;48.940;8.258;2022-12-29T09:10:50;1.90;;;1.00;;
61054;SDS011;46939;48.940;8.258;2022-12-29T09:13:19;3.67;;;1.00;;
61054;SDS011;46939;48.940;8.258;2022-12-29T09:15:48;2.10;;;1.00;;
61054;SDS011;46939;48.940;8.258;2022-12-29T09:18:17;4.75;;;1.20;;
61054;SDS011;46939;48.940;8.258;2022-12-29T09:20:46;2.63;;;1.00;;
61054;SDS011;46939;48.940;8.258;2022-12-29T09:23:25;3.03;;;1.00;;
61054;SDS011;46939;48.940;8.258;2022-12-29T09:25:54;2.40;;;0.82;;
61054;SDS011;46939;48.940;8.258;2022-12-29T09:28:23;3.45;;;0.95;;
61054;SDS011;46939;48.940;8.258;2022-12-29T09:30:51;4.30;;;0.93;;
61054;SDS011;46939;48.940;8.258;2022-12-29T09:33:19;2.08;;;0.93;;
61054;SDS011;46939;48.940;8.258;2022-12-29T09:35:50;3.35;;;0.98;;
61054;SDS011;46939;48.940;8.258;2022-12-29T09:38:19;1.98;;;0.82;;
61054;SDS011;46939;48.940;8.258;2022-12-29T09:40:52;2.75;;;1.00;;
61054;SDS011;46939;48.940;8.258;2022-12-29T09:43:31;3.45;;;1.10;;
61054;SDS011;46939;48.940;8.258;2022-12-29T09:46:18;6.60;;;0.98;;
61054;SDS011;46939;48.940;8.258;2022-12-29T09:48:55;2.38;;;1.05;;
61054;SDS011;46939;48.940;8.258;2022-12-29T09:51:33;4.90;;;1.02;;
61054;SDS011;46939;48.940;8.258;2022-12-29T09:54:21;2.95;;;0.95;;
61054;SDS011;46939;48.940;8.258;2022-12-29T09:56:59;2.83;;;1.08;;
61054;SDS011;46939;48.940;8.258;2022-12-29T09:59:31;1.98;;;0.90;;
61054;SDS011;46939;48.940;8.258;2022-12-29T10:02:12;2.88;;;1.42;;
61054;SDS011;46939;48.940;8.258;2022-12-29T10:04:51;3.67;;;1.20;;
61054;SDS011;46939;48.940;8.258;2022-12-29T10:07:23;2.55;;;1.02;;
61054;SDS011;46939;48.940;8.258;2022-12-29T10:10:01;3.85;;;1.17;;
61054;SDS011;46939;48.940;8.258;2022-12-29T10:12:46;1.80;;;0.90;;
61054;SDS011;46939;48.940;8.258;2022-12-29T10:15:33;3.95;;;1.02;;
61054;SDS011;46939;48.940;8.258;2022-12-29T10:18:12;3.83;;;1.25;;
61054;SDS011;46939;48.940;8.258;2022-12-29T10:20:52;2.85;;;1.02;;
61054;SDS011;46939;48.940;8.258;2022-12-29T10:23:29;2.35;;;0.90;;
61054;SDS011;46939;48.940;8.258;2022-12-29T10:26:02;4.03;;;1.00;;
61054;SDS011;46939;48.940;8.258;2022-12-29T10:28:42;2.47;;;1.15;;
61054;SDS011;46939;48.940;8.258;2022-12-29T10:31:17;2.42;;;0.90;;
61054;SDS011;46939;48.940;8.258;2022-12-29T10:33:49;3.17;;;1.20;;
61054;SDS011;46939;48.940;8.258;2022-12-29T10:36:24;4.57;;;1.10;;
61054;SDS011;46939;48.940;8.258;2022-12-29T10:39:01;4.72;;;0.88;;
61054;SDS011;46939;48.940;8.258;2022-12-29T10:41:39;4.22;;;0.93;;
61054;SDS011;46939;48.940;8.258;2022-12-29T10:44:16;2.35;;;1.05;;
61054;SDS011;46939;48.940;8.258;2022-12-29T10:46:48;2.75;;;1.02;;
61054;SDS011;46939;48.940;8.258;2022-12-29T10:49:23;2.38;;;0.90;;
61054;SDS011;46939;48.940;8.258;2022-12-29T10:51:54;2.58;;;1.10;;
61054;SDS011;46939;48.940;8.258;2022-12-29T10:54:29;3.03;;;1.03;;
61054;SDS011;46939;48.940;8.258;2022-12-29T10:57:05;4.97;;;0.90;;
61054;SDS011;46939;48.940;8.258;2022-12-29T10:59:41;3.30;;;1.05;;
61054;SDS011;46939;48.940;8.258;2022-12-29T11:02:16;3.70;;;1.30;;
61054;SDS011;46939;48.940;8.258;2022-12-29T11:04:55;3.80;;;1.08;;
61054;SDS011;46939;48.940;8.258;2022-12-29T11:07:30;3.47;;;1.10;;
61054;SDS011;46939;48.940;8.258;2022-12-29T11:12:54;2.35;;;0.90;;
61054;SDS011;46939;48.940;8.258;2022-12-29T11:15:28;4.72;;;1.30;;
61054;SDS011;46939;48.940;8.258;2022-12-29T11:18:16;5.45;;;1.00;;
61054;SDS011;46939;48.940;8.258;2022-12-29T11:20:47;4.93;;;1.10;;
61054;SDS011;46939;48.940;8.258;2022-12-29T11:23:29;3.15;;;1.02;;
61054;SDS011;46939;48.940;8.258;2022-12-29T11:26:06;4.05;;;1.23;;
61054;SDS011;46939;48.940;8.258;2022-12-29T11:28:41;2.72;;;1.00;;
61054;SDS011;46939;48.940;8.258;2022-12-29T11:31:15;2.28;;;1.10;;
61054;SDS011;46939;48.940;8.258;2022-12-29T11:33:45;2.83;;;1.10;;
61054;SDS011;46939;48.940;8.258;2022-12-29T11:36:14;2.75;;;1.20;;
61054;SDS011;46939;48.940;8.258;2022-12-29T11:38:46;4.18;;;1.10;;
61054;SDS011;46939;48.940;8.258;2022-12-29T11:41:20;4.43;;;1.10;;
61054;SDS011;46939;48.940;8.258;2022-12-29T11:43:51;3.05;;;1.00;;
61054;SDS011;46939;48.940;8.258;2022-12-29T11:46:25;2.75;;;1.02;;
61054;SDS011;46939;48.940;8.258;2022-12-29T11:48:57;1.88;;;0.93;;
61054;SDS011;46939;48.940;8.258;2022-12-29T11:51:27;2.97;;;0.90;;
61054;SDS011;46939;48.940;8.258;2022-12-29T11:53:58;3.67;;;0.70;;
61054;SDS011;46939;48.940;8.258;2022-12-29T11:56:34;2.20;;;0.52;;
61054;SDS011;46939;48.940;8.258;2022-12-29T12:01:56;1.45;;;0.45;;
61054;SDS011;46939;48.940;8.258;2022-12-29T12:04:27;3.30;;;0.70;;
61054;SDS011;46939;48.940;8.258;2022-12-29T12:07:02;1.50;;;0.53;;
61054;SDS011;46939;48.940;8.258;2022-12-29T12:09:39;3.25;;;0.60;;
61054;SDS011;46939;48.940;8.258;2022-12-29T12:12:15;4.35;;;0.60;;
61054;SDS011;46939;48.940;8.258;2022-12-29T12:14:52;2.13;;;0.40;;
61054;SDS011;46939;48.940;8.258;2022-12-29T12:17:28;2.72;;;0.50;;
61054;SDS011;46939;48.940;8.258;2022-12-29T12:20:04;1.85;;;0.45;;
61054;SDS011;46939;48.940;8.258;2022-12-29T12:22:45;6.30;;;0.52;;
61054;SDS011;46939;48.940;8.258;2022-12-29T12:25:21;1.20;;;0.50;;
61054;SDS011;46939;48.940;8.258;2022-12-29T12:27:57;4.60;;;0.70;;
61054;SDS011;46939;48.940;8.258;2022-12-29T12:30:34;2.60;;;0.55;;
61054;SDS011;46939;48.940;8.258;2022-12-29T12:33:13;3.03;;;0.70;;
61054;SDS011;46939;48.940;8.258;2022-12-29T12:35:49;1.52;;;0.60;;
61054;SDS011;46939;48.940;8.258;2022-12-29T12:38:37;2.30;;;0.77;;
61054;SDS011;46939;48.940;8.258;2022-12-29T12:41:15;1.40;;;0.60;;
61054;SDS011;46939;48.940;8.258;2022-12-29T12:43:49;3.80;;;0.80;;
61054;SDS011;46939;48.940;8.258;2022-12-29T12:46:30;9.35;;;0.75;;
61054;SDS011;46939;48.940;8.258;2022-12-29T12:49:19;3.65;;;0.85;;
61054;SDS011;46939;48.940;8.258;2022-12-29T12:52:09;2.15;;;0.80;;
61054;SDS011;46939;48.940;8.258;2022-12-29T12:54:55;2.28;;;0.70;;
61054;SDS011;46939;48.940;8.258;2022-12-29T12:57:38;2.53;;;1.02;;
61054;SDS011;46939;48.940;8.258;2022-12-29T13:00:14;2.40;;;0.98;;
61054;SDS011;46939;48.940;8.258;2022-12-29T13:02:50;2.40;;;0.80;;
61054;SDS011;46939;48.940;8.258;2022-12-29T13:05:37;3.15;;;1.13;;
61054;SDS011;46939;48.940;8.258;2022-12-29T13:08:25;2.67;;;0.88;;
61054;SDS011;46939;48.940;8.258;2022-12-29T13:11:05;3.00;;;0.98;;
61054;SDS011;46939;48.940;8.258;2022-12-29T13:16:32;2.28;;;0.95;;
61054;SDS011;46939;48.940;8.258;2022-12-29T13:19:09;3.00;;;1.10;;
61054;SDS011;46939;48.940;8.258;2022-12-29T13:21:48;1.95;;;0.70;;
61054;SDS011;46939;48.940;8.258;2022-12-29T13:24:27;2.42;;;0.90;;
61054;SDS011;46939;48.940;8.258;2022-12-29T13:27:01;1.00;;;0.52;;
61054;SDS011;46939;48.940;8.258;2022-12-29T13:29:36;1.98;;;0.57;;
61054;SDS011;46939;48.940;8.258;2022-12-29T13:32:15;2.47;;;0.50;;
61054;SDS011;46939;48.940;8.258;2022-12-29T13:34:54;1.13;;;0.50;;
61054;SDS011;46939;48.940;8.258;2022-12-29T13:37:35;1.80;;;0.70;;
61054;SDS011;46939;48.940;8.258;2022-12-29T13:40:15;2.22;;;0.50;;
61054;SDS011;46939;48.940;8.258;2022-12-29T13:42:47;1.73;;;0.50;;
61054;SDS011;46939;48.940;8.258;2022-12-29T13:45:19;3.00;;;0.60;;
61054;SDS011;46939;48.940;8.258;2022-12-29T13:47:52;4.53;;;0.50;;
61054;SDS011;46939;48.940;8.258;2022-12-29T13:50:25;1.33;;;0.30;;
61054;SDS011;46939;48.940;8.258;2022-12-29T13:52:59;1.00;;;0.38;;
61054;SDS011;46939;48.940;8.258;2022-12-29T13:55:39;1.35;;;0.45;;
61054;SDS011;46939;48.940;8.258;2022-12-29T13:58:16;2.80;;;0.32;;
61054;SDS011;46939;48.940;8.258;2022-12-29T14:00:53;1.15;;;0.35;;
61054;SDS011;46939;48.940;8.258;2022-12-29T14:03:33;1.73;;;0.52;;
61054;SDS011;46939;48.940;8.258;2022-12-29T14:06:15;1.42;;;0.50;;
61054;SDS011;46939;48.940;8.258;2022-12-29T14:08:54;2.40;;;0.50;;
61054;SDS011;46939;48.940;8.258;2022-12-29T14:11:28;1.67;;;0.60;;
61054;SDS011;46939;48.940;8.258;2022-12-29T14:13:59;2.03;;;0.55;;
61054;SDS011;46939;48.940;8.258;2022-12-29T14:16:39;4.32;;;0.88;;
61054;SDS011;46939;48.940;8.258;2022-12-29T14:19:11;2.88;;;0.73;;
61054;SDS011;46939;48.940;8.258;2022-12-29T14:21:49;1.65;;;0.70;;
61054;SDS011;46939;48.940;8.258;2022-12-29T14:24:37;2.55;;;0.50;;
61054;SDS011;46939;48.940;8.258;2022-12-29T14:30:13;2.13;;;0.47;;
61054;SDS011;46939;48.940;8.258;2022-12-29T14:33:16;0.80;;;0.30;;
61054;SDS011;46939;48.940;8.258;2022-12-29T14:35:46;2.58;;;0.63;;
61054;SDS011;46939;48.940;8.258;2022-12-29T14:38:18;2.15;;;0.70;;
61054;SDS011;46939;48.940;8.258;2022-12-29T14:40:49;1.75;;;0.40;;
61054;SDS011;46939;48.940;8.258;2022-12-29T14:43:20;1.92;;;0.60;;
61054;SDS011;46939;48.940;8.258;2022-12-29T14:46:00;2.58;;;0.70;;
61054;SDS011;46939;48.940;8.258;2022-12-29T14:48:41;1.77;;;0.80;;
61054;SDS011;46939;48.940;8.258;2022-12-29T14:51:25;2.35;;;0.88;;
61054;SDS011;46939;48.940;8.258;2022-12-29T14:53:58;3.28;;;0.80;;
61054;SDS011;46939;48.940;8.258;2022-12-29T14:56:27;3.45;;;1.00;;
61054;SDS011;46939;48.940;8.258;2022-12-29T14:58:57;1.88;;;0.77;;
61054;SDS011;46939;48.940;8.258;2022-12-29T15:01:39;4.00;;;1.10;;
61054;SDS011;46939;48.940;8.258;2022-12-29T15:04:17;4.88;;;1.33;;
61054;SDS011;46939;48.940;8.258;2022-12-29T15:06:48;8.60;;;2.58;;
61054;SDS011;46939;48.940;8.258;2022-12-29T15:09:22;3.35;;;1.00;;
61054;SDS011;46939;48.940;8.258;2022-12-29T15:11:57;3.53;;;1.75;;
61054;SDS011;46939;48.940;8.258;2022-12-29T15:14:31;3.20;;;1.30;;
61054;SDS011;46939;48.940;8.258;2022-12-29T15:17:09;3.17;;;0.70;;
61054;SDS011;46939;48.940;8.258;2022-12-29T15:19:41;5.30;;;0.90;;
61054;SDS011;46939;48.940;8.258;2022-12-29T15:22:10;5.20;;;0.98;;
61054;SDS011;46939;48.940;8.258;2022-12-29T15:24:40;1.88;;;1.00;;
61054;SDS011;46939;48.940;8.258;2022-12-29T15:27:10;4.18;;;1.10;;
61054;SDS011;46939;48.940;8.258;2022-12-29T15:29:42;2.17;;;1.10;;
61054;SDS011;46939;48.940;8.258;2022-12-29T15:32:16;3.50;;;1.20;;
61054;SDS011;46939;48.940;8.258;2022-12-29T15:34:50;3.22;;;1.30;;
61054;SDS011;46939;48.940;8.258;2022-12-29T15:37:21;3.83;;;1.70;;
61054;SDS011;46939;48.940;8.258;2022-12-29T15:39:52;3.00;;;0.98;;
61054;SDS011;46939;48.940;8.258;2022-12-29T15:42:35;3.67;;;1.10;;